createdAt,value
2018-09-19T00:00:53.019Z,18.98
2018-09-19T00:03:20.294Z,18.94
2018-09-19T00:05:47.539Z,18.81
2018-09-19T00:08:14.808Z,18.73
2018-09-19T00:10:42.071Z,18.73
2018-09-19T00:13:09.350Z,18.68
2018-09-19T00:15:36.715Z,18.68
2018-09-19T00:18:03.973Z,18.60
2018-09-19T00:20:31.316Z,18.63
2018-09-19T00:22:58.586Z,18.58
2018-09-19T00:25:25.898Z,18.56
2018-09-19T00:27:53.196Z,18.44
2018-09-19T00:30:20.507Z,18.29
2018-09-19T00:32:48.022Z,18.24
2018-09-19T00:35:15.283Z,18.28
2018-09-19T00:37:42.669Z,18.26
2018-09-19T00:40:10.679Z,18.30
2018-09-19T00:42:38.015Z,18.30
2018-09-19T00:45:05.349Z,18.37
2018-09-19T00:47:32.708Z,18.34
2018-09-19T00:50:00.041Z,18.32
2018-09-19T00:52:27.318Z,18.30
2018-09-19T00:54:54.562Z,18.33
2018-09-19T00:57:21.845Z,18.27
2018-09-19T00:59:49.175Z,18.15
2018-09-19T01:02:16.483Z,18.06
2018-09-19T01:04:43.777Z,18.04
2018-09-19T01:07:11.131Z,17.99
2018-09-19T01:09:38.327Z,17.97
2018-09-19T01:12:05.686Z,17.80
2018-09-19T01:14:32.993Z,17.85
2018-09-19T01:17:00.354Z,17.95
2018-09-19T01:19:27.578Z,17.91
2018-09-19T01:21:54.918Z,17.96
2018-09-19T01:24:22.227Z,17.87
2018-09-19T01:26:49.442Z,17.69
2018-09-19T01:29:16.740Z,17.73
2018-09-19T01:31:44.125Z,17.69
2018-09-19T01:34:11.312Z,17.65
2018-09-19T01:36:38.564Z,17.59
2018-09-19T01:39:06.455Z,17.62
2018-09-19T01:41:33.725Z,17.11
2018-09-19T01:44:00.975Z,17.55
2018-09-19T01:46:28.189Z,17.62
2018-09-19T01:48:55.494Z,17.44
2018-09-19T01:51:22.828Z,17.34
2018-09-19T01:53:50.195Z,17.36
2018-09-19T01:56:17.510Z,17.48
2018-09-19T01:58:44.805Z,17.58
2018-09-19T02:01:12.116Z,17.58
2018-09-19T02:03:39.460Z,17.62
2018-09-19T02:06:06.685Z,17.66
2018-09-19T02:08:33.914Z,17.65
2018-09-19T02:11:01.179Z,17.70
2018-09-19T02:13:28.487Z,17.74
2018-09-19T02:15:55.751Z,17.70
2018-09-19T02:18:23.019Z,17.73
2018-09-19T02:20:50.340Z,17.77
2018-09-19T02:23:17.633Z,17.76
2018-09-19T02:25:44.891Z,17.71
2018-09-19T02:28:12.165Z,17.62
2018-09-19T02:30:39.466Z,17.53
2018-09-19T02:33:06.798Z,17.45
2018-09-19T02:35:34.073Z,17.37
2018-09-19T02:38:01.269Z,17.39
2018-09-19T02:40:28.564Z,17.38
2018-09-19T02:42:55.892Z,17.24
2018-09-19T02:45:23.189Z,17.32
2018-09-19T02:47:50.488Z,17.27
2018-09-19T02:50:17.824Z,17.19
2018-09-19T02:52:49.631Z,17.17
2018-09-19T02:55:16.926Z,17.17
2018-09-19T02:57:44.140Z,17.11
2018-09-19T03:00:11.390Z,17.06
2018-09-19T03:02:38.705Z,17.05
2018-09-19T03:05:05.991Z,17.09
2018-09-19T03:07:33.397Z,17.05
2018-09-19T03:10:00.627Z,16.98
2018-09-19T03:12:28.017Z,16.91
2018-09-19T03:14:55.330Z,16.79
2018-09-19T03:17:22.735Z,16.83
2018-09-19T03:19:49.912Z,16.80
2018-09-19T03:22:17.218Z,16.83
2018-09-19T03:24:44.562Z,16.81
2018-09-19T03:27:11.782Z,16.79
2018-09-19T03:29:39.047Z,16.78
2018-09-19T03:32:06.358Z,16.78
2018-09-19T03:34:33.620Z,16.77
2018-09-19T03:37:00.800Z,16.80
2018-09-19T03:39:28.124Z,16.81
2018-09-19T03:41:55.454Z,16.72
2018-09-19T03:44:22.650Z,16.74
2018-09-19T03:46:49.870Z,16.72
2018-09-19T03:49:17.211Z,16.50
2018-09-19T03:51:44.484Z,16.15
2018-09-19T03:54:11.832Z,16.15
2018-09-19T03:56:39.086Z,16.18
2018-09-19T03:59:06.335Z,16.28
2018-09-19T04:01:33.601Z,16.32
2018-09-19T04:04:00.841Z,16.31
2018-09-19T04:06:28.126Z,16.33
2018-09-19T04:08:55.355Z,16.38
2018-09-19T04:11:22.600Z,16.39
2018-09-19T04:13:49.945Z,16.44
2018-09-19T04:16:17.243Z,16.36
2018-09-19T04:18:44.524Z,16.28
2018-09-19T04:21:11.842Z,15.98
2018-09-19T04:23:39.137Z,15.75
2018-09-19T04:26:06.480Z,15.71
2018-09-19T04:28:33.771Z,15.67
2018-09-19T04:31:00.995Z,15.76
2018-09-19T04:33:28.321Z,15.81
2018-09-19T04:35:56.054Z,15.82
2018-09-19T04:38:23.374Z,15.78
2018-09-19T04:40:50.671Z,15.84
2018-09-19T04:43:17.965Z,15.90
2018-09-19T04:45:45.281Z,15.89
2018-09-19T04:48:12.564Z,15.85
2018-09-19T04:50:39.835Z,15.84
2018-09-19T04:53:06.996Z,15.81
2018-09-19T04:55:34.278Z,15.82
2018-09-19T04:58:01.544Z,15.77
2018-09-19T05:00:28.792Z,15.82
2018-09-19T05:02:56.097Z,15.76
2018-09-19T05:05:23.368Z,15.80
2018-09-19T05:07:50.601Z,15.82
2018-09-19T05:10:17.892Z,15.80
2018-09-19T05:12:45.183Z,15.80
2018-09-19T05:15:12.455Z,15.74
2018-09-19T05:17:39.730Z,15.77
2018-09-19T05:20:07.102Z,15.84
2018-09-19T05:22:34.400Z,15.87
2018-09-19T05:25:01.674Z,15.97
2018-09-19T05:27:28.991Z,16.02
2018-09-19T05:29:56.320Z,15.97
2018-09-19T05:32:23.707Z,15.84
2018-09-19T05:34:50.970Z,15.73
2018-09-19T05:37:18.261Z,15.72
2018-09-19T05:39:45.652Z,15.82
2018-09-19T05:42:12.939Z,15.95
2018-09-19T05:44:40.211Z,15.95
2018-09-19T05:47:07.554Z,16.02
2018-09-19T05:49:34.896Z,16.15
2018-09-19T05:52:02.141Z,16.29
2018-09-19T05:54:29.522Z,16.38
2018-09-19T05:56:56.856Z,16.44
2018-09-19T05:59:24.124Z,16.54
2018-09-19T06:01:51.381Z,16.71
2018-09-19T06:04:18.668Z,16.72
2018-09-19T06:06:46.100Z,16.77
2018-09-19T06:09:13.396Z,16.80
2018-09-19T06:11:40.788Z,16.80
2018-09-19T06:14:08.271Z,16.97
2018-09-19T06:16:35.717Z,17.16
2018-09-19T06:19:02.997Z,17.20
2018-09-19T06:21:30.319Z,17.22
2018-09-19T06:23:57.580Z,17.33
2018-09-19T06:26:24.859Z,17.19
2018-09-19T06:28:52.243Z,17.06
2018-09-19T06:31:19.516Z,17.22
2018-09-19T06:33:46.850Z,17.37
2018-09-19T06:36:14.494Z,17.50
2018-09-19T06:38:41.772Z,17.56
2018-09-19T06:41:09.098Z,17.86
2018-09-19T06:45:00.912Z,17.97
2018-09-19T06:47:28.178Z,18.10
2018-09-19T06:49:55.442Z,18.46
2018-09-19T06:52:22.882Z,19.14
2018-09-19T06:54:50.174Z,19.76
2018-09-19T06:57:17.534Z,20.49
2018-09-19T06:59:44.890Z,20.91
2018-09-19T07:02:12.146Z,21.39
2018-09-19T07:04:39.408Z,21.82
2018-09-19T07:07:06.612Z,22.08
2018-09-19T07:09:33.880Z,22.48
2018-09-19T07:12:01.179Z,22.82
2018-09-19T07:14:28.411Z,23.21
2018-09-19T07:16:55.672Z,23.74
2018-09-19T07:19:23.008Z,24.02
2018-09-19T07:21:50.215Z,24.58
2018-09-19T07:24:17.442Z,25.09
2018-09-19T07:26:44.768Z,25.44
2018-09-19T07:29:12.016Z,26.14
2018-09-19T07:31:39.268Z,26.42
2018-09-19T07:34:06.599Z,26.95
2018-09-19T07:36:33.865Z,26.84
2018-09-19T07:39:01.127Z,27.46
2018-09-19T07:41:28.371Z,27.85
2018-09-19T07:43:55.717Z,27.67
2018-09-19T07:46:23.082Z,27.82
2018-09-19T07:48:50.312Z,28.10
2018-09-19T07:51:17.570Z,28.52
2018-09-19T07:53:44.795Z,29.05
2018-09-19T07:56:12.121Z,29.08
2018-09-19T07:58:39.408Z,28.42
2018-09-19T08:01:06.920Z,28.32
2018-09-19T08:03:34.089Z,28.87
2018-09-19T08:06:01.427Z,29.00
2018-09-19T08:08:28.687Z,28.63
2018-09-19T08:10:55.926Z,28.66
2018-09-19T08:13:23.191Z,29.54
2018-09-19T08:15:50.503Z,30.49
2018-09-19T08:18:17.811Z,30.14
2018-09-19T08:20:45.064Z,30.37
2018-09-19T08:23:12.319Z,30.37
2018-09-19T08:25:39.562Z,29.93
2018-09-19T08:28:06.808Z,29.53
2018-09-19T08:30:34.178Z,29.12
2018-09-19T08:33:01.387Z,28.67
2018-09-19T08:35:28.747Z,28.67
2018-09-19T08:37:55.999Z,28.94
2018-09-19T08:40:23.279Z,28.90
2018-09-19T08:42:50.530Z,28.71
2018-09-19T08:45:17.900Z,28.74
2018-09-19T08:47:45.150Z,28.59
2018-09-19T08:50:12.566Z,28.06
2018-09-19T08:52:39.889Z,27.59
2018-09-19T08:55:07.171Z,27.10
2018-09-19T08:57:34.451Z,26.48
2018-09-19T09:00:01.827Z,26.73
2018-09-19T09:02:29.106Z,26.64
2018-09-19T09:04:56.418Z,26.61
2018-09-19T09:07:23.696Z,26.65
2018-09-19T09:09:50.967Z,26.61
2018-09-19T09:12:18.404Z,26.50
2018-09-19T09:14:45.618Z,26.59
2018-09-19T09:17:12.883Z,26.77
2018-09-19T09:19:40.185Z,27.01
2018-09-19T09:22:07.494Z,26.96
2018-09-19T09:24:34.786Z,26.98
2018-09-19T09:27:02.159Z,27.16
2018-09-19T09:29:29.406Z,27.36
2018-09-19T09:31:56.699Z,27.50
2018-09-19T09:34:24.042Z,27.79
2018-09-19T09:36:51.501Z,27.86
2018-09-19T09:39:18.742Z,28.39
2018-09-19T09:41:46.030Z,28.60
2018-09-19T09:44:13.295Z,28.64
2018-09-19T09:46:40.588Z,28.66
2018-09-19T09:49:07.828Z,29.64
2018-09-19T09:51:35.254Z,29.97
2018-09-19T09:54:02.516Z,30.01
2018-09-19T09:56:29.794Z,29.95
2018-09-19T09:58:57.222Z,30.27
2018-09-19T10:01:24.478Z,30.77
2018-09-19T10:03:51.805Z,31.28
2018-09-19T10:06:19.125Z,30.92
2018-09-19T10:08:46.413Z,31.04
2018-09-19T10:11:13.725Z,31.68
2018-09-19T10:13:41.077Z,31.88
2018-09-19T10:16:08.753Z,31.71
2018-09-19T10:18:36.049Z,31.39
2018-09-19T10:21:03.359Z,31.44
2018-09-19T10:23:30.692Z,31.77
2018-09-19T10:25:57.933Z,31.86
2018-09-19T10:28:25.163Z,31.85
2018-09-19T10:30:52.460Z,32.01
2018-09-19T10:33:19.723Z,31.39
2018-09-19T10:35:47.022Z,31.34
2018-09-19T10:38:14.282Z,31.78
2018-09-19T10:40:41.542Z,32.52
2018-09-19T10:43:08.807Z,32.46
2018-09-19T10:45:36.123Z,31.75
2018-09-19T10:48:03.418Z,31.51
2018-09-19T10:50:30.662Z,31.64
2018-09-19T10:52:57.956Z,32.11
2018-09-19T10:55:25.169Z,31.96
2018-09-19T10:57:52.497Z,32.56
2018-09-19T11:00:19.730Z,32.56
2018-09-19T11:02:46.989Z,32.25
2018-09-19T11:05:14.219Z,32.04
2018-09-19T11:07:41.402Z,31.92
2018-09-19T11:10:08.723Z,32.34
2018-09-19T11:12:36.026Z,32.19
2018-09-19T11:15:03.321Z,31.91
2018-09-19T11:17:30.646Z,31.11
2018-09-19T11:19:57.964Z,31.00
2018-09-19T11:22:25.276Z,31.47
2018-09-19T11:24:52.579Z,32.12
2018-09-19T11:27:19.873Z,32.55
2018-09-19T11:29:47.110Z,32.54
2018-09-19T11:32:14.375Z,32.45
2018-09-19T11:34:41.675Z,32.79
2018-09-19T11:37:08.937Z,32.73
2018-09-19T11:39:36.204Z,32.34
2018-09-19T11:42:03.484Z,32.08
2018-09-19T11:44:30.846Z,31.95
2018-09-19T11:46:58.167Z,31.57
2018-09-19T11:49:25.456Z,31.50
2018-09-19T11:51:52.715Z,31.40
2018-09-19T11:54:20.064Z,31.68
2018-09-19T11:56:47.324Z,31.45
2018-09-19T11:59:14.615Z,31.36
2018-09-19T12:01:41.915Z,30.92
2018-09-19T12:04:09.185Z,30.98
2018-09-19T12:06:36.523Z,31.27
2018-09-19T12:09:05.898Z,31.56
2018-09-19T12:11:33.149Z,31.21
2018-09-19T12:14:00.371Z,30.76
2018-09-19T12:16:27.658Z,30.96
2018-09-19T12:18:54.919Z,31.63
2018-09-19T12:21:22.197Z,32.47
2018-09-19T12:23:49.433Z,32.60
2018-09-19T12:26:16.820Z,32.17
2018-09-19T12:28:44.091Z,31.90
2018-09-19T12:31:11.358Z,31.42
2018-09-19T12:33:38.586Z,31.39
2018-09-19T12:36:06.676Z,31.37
2018-09-19T12:38:33.892Z,31.85
2018-09-19T12:41:01.196Z,32.15
2018-09-19T12:43:28.498Z,32.31
2018-09-19T12:45:55.815Z,32.54
2018-09-19T12:48:23.074Z,31.89
2018-09-19T12:50:50.351Z,31.22
2018-09-19T12:53:17.738Z,31.90
2018-09-19T12:55:49.044Z,32.17
2018-09-19T12:58:16.340Z,31.71
2018-09-19T13:00:43.603Z,31.27
2018-09-19T13:03:10.891Z,31.49
2018-09-19T13:05:38.121Z,31.46
2018-09-19T13:08:05.506Z,31.56
2018-09-19T13:10:32.795Z,31.54
2018-09-19T13:13:00.138Z,31.52
2018-09-19T13:15:27.371Z,31.71
2018-09-19T13:17:54.595Z,31.80
2018-09-19T13:20:21.899Z,31.90
2018-09-19T13:22:49.119Z,32.10
2018-09-19T13:25:16.389Z,32.18
2018-09-19T13:27:43.692Z,31.86
2018-09-19T13:30:11.129Z,31.83
2018-09-19T13:32:38.418Z,31.70
2018-09-19T13:35:05.727Z,31.73
2018-09-19T13:37:32.965Z,31.65
2018-09-19T13:40:00.281Z,30.86
2018-09-19T13:42:27.538Z,30.70
2018-09-19T13:44:54.851Z,31.09
2018-09-19T13:47:22.091Z,31.26
2018-09-19T13:49:54.956Z,30.85
2018-09-19T13:52:22.143Z,31.25
2018-09-19T13:54:49.444Z,31.81
2018-09-19T13:57:16.748Z,31.71
2018-09-19T13:59:44.037Z,31.84
2018-09-19T14:02:11.298Z,31.44
2018-09-19T14:04:38.657Z,31.33
2018-09-19T14:07:06.297Z,31.76
2018-09-19T14:09:33.527Z,31.81
2018-09-19T14:12:00.837Z,31.68
2018-09-19T14:14:28.113Z,31.35
2018-09-19T14:16:55.350Z,31.34
2018-09-19T14:19:22.608Z,32.03
2018-09-19T14:21:49.892Z,32.42
2018-09-19T14:24:17.161Z,32.18
2018-09-19T14:26:44.526Z,31.91
2018-09-19T14:29:11.745Z,32.13
2018-09-19T14:31:39.018Z,32.32
2018-09-19T14:34:06.238Z,32.10
2018-09-19T14:36:33.510Z,32.12
2018-09-19T14:39:00.784Z,32.29
2018-09-19T14:41:28.073Z,32.21
2018-09-19T14:43:55.367Z,31.92
2018-09-19T14:46:22.735Z,32.28
2018-09-19T14:48:50.093Z,32.43
2018-09-19T14:51:17.341Z,31.99
2018-09-19T14:53:44.616Z,31.90
2018-09-19T14:56:11.875Z,32.06
2018-09-19T14:58:39.174Z,32.07
2018-09-19T15:01:06.445Z,32.18
2018-09-19T15:03:33.879Z,32.41
2018-09-19T15:06:01.124Z,32.83
2018-09-19T15:08:28.476Z,33.26
2018-09-19T15:10:55.785Z,33.76
2018-09-19T15:13:23.032Z,33.47
2018-09-19T15:15:50.279Z,33.13
2018-09-19T15:18:17.519Z,32.86
2018-09-19T15:20:44.803Z,33.08
2018-09-19T15:23:12.209Z,32.71
2018-09-19T15:25:39.550Z,32.70
2018-09-19T15:28:06.875Z,32.82
2018-09-19T15:30:34.131Z,32.59
2018-09-19T15:33:01.424Z,32.34
2018-09-19T15:35:28.695Z,32.14
2018-09-19T15:37:55.920Z,32.05
2018-09-19T15:40:23.167Z,32.34
2018-09-19T15:42:50.371Z,32.73
2018-09-19T15:45:17.631Z,32.97
2018-09-19T15:47:44.932Z,32.64
2018-09-19T15:50:12.174Z,32.23
2018-09-19T15:52:39.460Z,32.37
2018-09-19T15:55:06.760Z,31.94
2018-09-19T15:57:34.026Z,31.37
2018-09-19T16:00:01.422Z,31.17
2018-09-19T16:02:28.676Z,31.39
2018-09-19T16:04:55.967Z,31.44
2018-09-19T16:07:23.318Z,31.65
2018-09-19T16:09:50.634Z,31.79
2018-09-19T16:12:17.945Z,31.79
2018-09-19T16:14:45.203Z,31.93
2018-09-19T16:17:12.492Z,32.02
2018-09-19T16:19:39.837Z,32.07
2018-09-19T16:22:07.213Z,31.98
2018-09-19T16:24:34.749Z,31.88
2018-09-19T16:27:01.991Z,31.68
2018-09-19T16:29:29.376Z,31.49
2018-09-19T16:31:56.632Z,31.48
2018-09-19T16:34:23.929Z,31.46
2018-09-19T16:36:51.789Z,31.33
2018-09-19T16:39:19.100Z,31.31
2018-09-19T16:41:46.460Z,31.15
2018-09-19T16:44:13.974Z,30.97
2018-09-19T16:46:41.290Z,30.76
2018-09-19T16:49:09.110Z,30.67
2018-09-19T16:51:36.386Z,30.45
2018-09-19T16:54:03.675Z,30.28
2018-09-19T16:56:30.907Z,30.15
2018-09-19T16:58:58.246Z,29.99
2018-09-19T17:01:25.551Z,29.75
2018-09-19T17:03:52.826Z,29.64
2018-09-19T17:06:20.115Z,29.63
2018-09-19T17:08:47.409Z,29.51
2018-09-19T17:11:14.733Z,29.32
2018-09-19T17:13:41.981Z,29.02
2018-09-19T17:16:09.230Z,28.80
2018-09-19T17:18:36.550Z,28.51
2018-09-19T17:21:03.809Z,28.34
2018-09-19T17:23:31.088Z,28.12
2018-09-19T17:25:58.334Z,27.94
2018-09-19T17:28:25.628Z,27.73
2018-09-19T17:30:52.893Z,27.65
2018-09-19T17:33:20.146Z,27.53
2018-09-19T17:35:47.384Z,27.28
2018-09-19T17:38:14.670Z,27.03
2018-09-19T17:40:41.992Z,26.87
2018-09-19T17:43:09.276Z,26.73
2018-09-19T17:45:36.528Z,26.77
2018-09-19T17:48:03.836Z,26.70
2018-09-19T17:50:31.092Z,26.65
2018-09-19T17:52:58.461Z,26.57
2018-09-19T17:55:25.919Z,26.47
2018-09-19T17:57:53.114Z,26.38
2018-09-19T18:00:20.494Z,26.27
2018-09-19T18:02:49.095Z,26.24
2018-09-19T18:05:18.930Z,26.16
2018-09-19T18:07:46.872Z,26.06
2018-09-19T18:10:14.467Z,26.01
2018-09-19T18:12:41.687Z,25.83
2018-09-19T18:15:09.035Z,25.72
2018-09-19T18:17:36.329Z,25.60
2018-09-19T18:20:03.752Z,25.59
2018-09-19T18:22:31.121Z,25.47
2018-09-19T18:24:58.405Z,25.40
2018-09-19T18:27:25.658Z,25.29
2018-09-19T18:29:52.924Z,25.15
2018-09-19T18:32:20.123Z,25.10
2018-09-19T18:34:47.433Z,25.00
2018-09-19T18:37:14.716Z,24.87
2018-09-19T18:39:41.977Z,24.78
2018-09-19T18:42:09.271Z,24.73
2018-09-19T18:44:36.522Z,24.62
2018-09-19T18:47:03.819Z,24.48
2018-09-19T18:49:31.108Z,24.37
2018-09-19T18:51:58.366Z,24.29
2018-09-19T18:54:25.602Z,24.25
2018-09-19T18:56:52.908Z,24.17
2018-09-19T18:59:20.324Z,24.13
2018-09-19T19:01:47.670Z,24.06
2018-09-19T19:04:14.943Z,23.98
2018-09-19T19:06:42.448Z,23.94
2018-09-19T19:09:10.814Z,23.88
2018-09-19T19:11:38.132Z,23.81
2018-09-19T19:14:05.530Z,23.76
2018-09-19T19:16:32.855Z,23.72
2018-09-19T19:19:00.511Z,23.71
2018-09-19T19:21:27.703Z,23.60
2018-09-19T19:23:54.974Z,23.52
2018-09-19T19:26:22.243Z,23.42
2018-09-19T19:28:49.537Z,23.36
2018-09-19T19:31:16.744Z,23.22
2018-09-19T19:33:43.931Z,23.23
2018-09-19T19:36:11.169Z,23.15
2018-09-19T19:38:38.433Z,23.16
2018-09-19T19:41:05.772Z,23.09
2018-09-19T19:43:33.067Z,23.01
2018-09-19T19:46:00.367Z,22.91
2018-09-19T19:48:27.566Z,22.83
2018-09-19T19:50:54.870Z,22.77
2018-09-19T19:53:22.234Z,22.70
2018-09-19T19:55:49.958Z,22.56
2018-09-19T19:58:18.746Z,22.55
2018-09-19T20:00:50.077Z,22.47
2018-09-19T20:03:17.718Z,22.45
2018-09-19T20:05:47.513Z,22.46
2018-09-19T20:08:15.108Z,22.38
2018-09-19T20:10:43.367Z,22.33
2018-09-19T20:13:10.775Z,22.21
2018-09-19T20:15:38.049Z,22.14
2018-09-19T20:18:05.356Z,22.05
2018-09-19T20:20:32.705Z,22.00
2018-09-19T20:23:00.051Z,22.02
2018-09-19T20:25:27.381Z,21.97
2018-09-19T20:27:54.607Z,22.01
2018-09-19T20:30:21.890Z,22.00
2018-09-19T20:32:49.256Z,21.98
2018-09-19T20:35:16.510Z,21.84
2018-09-19T20:37:43.731Z,21.77
2018-09-19T20:40:10.992Z,21.71
2018-09-19T20:42:38.230Z,21.66
2018-09-19T20:45:05.614Z,21.59
2018-09-19T20:47:32.861Z,21.59
2018-09-19T20:50:00.124Z,21.55
2018-09-19T20:52:27.446Z,21.53
2018-09-19T20:54:54.679Z,21.46
2018-09-19T20:57:22.019Z,21.42
2018-09-19T20:59:49.249Z,21.34
2018-09-19T21:02:16.661Z,21.33
2018-09-19T21:04:43.931Z,21.27
2018-09-19T21:07:11.157Z,21.18
2018-09-19T21:09:38.356Z,21.12
2018-09-19T21:12:05.642Z,21.11
2018-09-19T21:14:32.892Z,21.09
2018-09-19T21:17:00.148Z,21.05
2018-09-19T21:19:27.475Z,21.05
2018-09-19T21:21:54.814Z,21.01
2018-09-19T21:24:22.153Z,20.96
2018-09-19T21:26:49.433Z,20.93
2018-09-19T21:29:16.667Z,20.91
2018-09-19T21:31:44.045Z,20.87
2018-09-19T21:34:11.299Z,20.84
2018-09-19T21:36:38.537Z,20.69
2018-09-19T21:39:07.753Z,20.70
2018-09-19T21:41:34.997Z,20.66
2018-09-19T21:44:02.304Z,20.63
2018-09-19T21:46:29.547Z,20.60
2018-09-19T21:48:56.830Z,20.59
2018-09-19T21:51:24.069Z,20.55
2018-09-19T21:53:51.367Z,20.48
2018-09-19T21:56:18.533Z,20.38
2018-09-19T21:58:45.854Z,20.34
2018-09-19T22:01:13.189Z,20.33
2018-09-19T22:03:41.108Z,20.34
2018-09-19T22:06:08.491Z,20.29
2018-09-19T22:08:36.716Z,20.31
2018-09-19T22:11:04.623Z,20.23
2018-09-19T22:13:31.956Z,20.16
2018-09-19T22:15:59.175Z,20.13
2018-09-19T22:18:26.430Z,20.11
2018-09-19T22:20:53.754Z,20.05
2018-09-19T22:23:20.992Z,19.99
2018-09-19T22:25:48.255Z,20.08
2018-09-19T22:28:15.469Z,19.95
2018-09-19T22:30:42.771Z,19.81
2018-09-19T22:33:10.030Z,19.81
2018-09-19T22:35:37.227Z,19.82
2018-09-19T22:38:04.453Z,19.78
2018-09-19T22:40:31.720Z,19.82
2018-09-19T22:42:59.048Z,19.71
2018-09-19T22:45:26.278Z,19.71
2018-09-19T22:47:53.528Z,19.74
2018-09-19T22:50:20.826Z,19.70
2018-09-19T22:52:48.121Z,19.67
2018-09-19T22:55:15.385Z,19.69
2018-09-19T22:57:42.622Z,19.64
2018-09-19T23:00:09.927Z,19.58
2018-09-19T23:02:37.202Z,19.54
2018-09-19T23:05:04.789Z,19.55
2018-09-19T23:07:32.025Z,19.47
2018-09-19T23:09:59.346Z,19.43
2018-09-19T23:12:26.658Z,19.37
2018-09-19T23:14:53.898Z,19.27
2018-09-19T23:17:21.186Z,19.32
2018-09-19T23:19:48.449Z,19.29
2018-09-19T23:22:15.729Z,19.27
2018-09-19T23:24:43.028Z,19.23
2018-09-19T23:27:10.264Z,19.30
2018-09-19T23:29:37.562Z,19.31
2018-09-19T23:32:04.880Z,19.27
2018-09-19T23:34:32.176Z,19.18
2018-09-19T23:36:59.502Z,19.22
2018-09-19T23:39:26.737Z,19.07
2018-09-19T23:41:54.084Z,19.01
2018-09-19T23:44:21.347Z,19.04
2018-09-19T23:46:48.620Z,19.04
2018-09-19T23:49:15.891Z,18.96
2018-09-19T23:51:43.260Z,18.98
2018-09-19T23:54:10.533Z,19.00
2018-09-19T23:56:37.751Z,18.95
2018-09-19T23:59:05.110Z,18.95
